Time;durP1;ratioP1;P1;durP2;ratioP2;P2;SDS_P1;SDS_P2;PMS_P1;PMS_P2;Temp;Humidity;BMP_temperature;BMP_pressure;BME280_temperature;BME280_humidity;BME280_pressure;Samples;Min_cycle;Max_cycle;Signal;HPM_P1;HPM_P2
2023/07/12 00:00:20;;;;;;;26.48;7.25;;;;;;;;;;4929515;28;20035;-65
2023/07/12 00:02:46;;;;;;;36.40;7.10;;;;;;;;;;4927708;28;20450;-65
2023/07/12 00:05:12;;;;;;;28.38;7.40;;;;;;;;;;4934416;28;20545;-65
2023/07/12 00:07:38;;;;;;;30.08;7.00;;;;;;;;;;4931115;28;20039;-65
2023/07/12 00:10:12;;;;;;;28.25;7.03;;;;;;;;;;4930276;28;20137;-65
2023/07/12 00:12:38;;;;;;;25.50;6.63;;;;;;;;;;4926935;28;20482;-65
2023/07/12 00:15:04;;;;;;;25.30;6.32;;;;;;;;;;4930629;28;20368;-65
2023/07/12 00:17:30;;;;;;;25.83;6.90;;;;;;;;;;4935645;28;20362;-65
2023/07/12 00:19:56;;;;;;;29.65;6.70;;;;;;;;;;4909923;28;20149;-65
2023/07/12 00:22:23;;;;;;;28.70;7.10;;;;;;;;;;4933602;28;20034;-66
2023/07/12 00:24:49;;;;;;;27.45;6.90;;;;;;;;;;4928546;28;20031;-65
2023/07/12 00:27:16;;;;;;;37.40;7.65;;;;;;;;;;4916389;28;20063;-65
2023/07/12 00:29:42;;;;;;;32.90;6.80;;;;;;;;;;4925820;28;20043;-65
2023/07/12 00:32:09;;;;;;;37.42;7.70;;;;;;;;;;4927234;28;20492;-65
2023/07/12 00:34:35;;;;;;;34.47;7.65;;;;;;;;;;4929596;28;20323;-65
2023/07/12 00:37:01;;;;;;;38.38;7.75;;;;;;;;;;4933245;28;20035;-65
2023/07/12 00:39:27;;;;;;;38.95;7.80;;;;;;;;;;4915996;28;20410;-65
2023/07/12 00:41:57;;;;;;;32.63;7.80;;;;;;;;;;4910989;28;20292;-66
2023/07/12 00:44:25;;;;;;;36.80;7.68;;;;;;;;;;4933688;28;20663;-65
2023/07/12 00:46:53;;;;;;;36.67;7.78;;;;;;;;;;4910231;28;20043;-65
2023/07/12 00:49:20;;;;;;;41.08;8.85;;;;;;;;;;4933281;28;20766;-65
2023/07/12 00:52:04;;;;;;;35.72;7.40;;;;;;;;;;4914087;28;20065;-65
2023/07/12 00:54:49;;;;;;;33.30;7.55;;;;;;;;;;4915267;28;20182;-65
2023/07/12 00:57:16;;;;;;;46.70;8.25;;;;;;;;;;4915464;28;20023;-65
2023/07/12 00:59:42;;;;;;;39.88;8.38;;;;;;;;;;4931732;28;20425;-66
2023/07/12 01:02:09;;;;;;;42.00;8.05;;;;;;;;;;4910665;28;20031;-65
2023/07/12 01:04:40;;;;;;;38.53;8.05;;;;;;;;;;4913512;28;20549;-65
2023/07/12 01:07:06;;;;;;;35.38;8.18;;;;;;;;;;4933660;28;20039;-65
2023/07/12 01:09:33;;;;;;;46.33;8.55;;;;;;;;;;4930070;28;20445;-65
2023/07/12 01:11:59;;;;;;;39.40;8.43;;;;;;;;;;4928417;28;20732;-65
2023/07/12 01:14:26;;;;;;;39.25;8.68;;;;;;;;;;4931868;28;20019;-66
2023/07/12 01:16:56;;;;;;;42.85;7.85;;;;;;;;;;4931341;28;20043;-65
2023/07/12 01:19:22;;;;;;;38.72;7.75;;;;;;;;;;4931201;28;20141;-65
2023/07/12 01:21:50;;;;;;;39.47;9.02;;;;;;;;;;4931814;28;20042;-65
2023/07/12 01:24:17;;;;;;;41.70;8.10;;;;;;;;;;4933336;28;20147;-66
2023/07/12 01:26:44;;;;;;;47.40;8.65;;;;;;;;;;4927156;28;20114;-67
2023/07/12 01:29:11;;;;;;;42.28;8.48;;;;;;;;;;4914782;28;20131;-64
2023/07/12 01:31:37;;;;;;;29.83;6.63;;;;;;;;;;4927584;28;20035;-65
2023/07/12 01:34:03;;;;;;;36.60;7.70;;;;;;;;;;4932382;28;20023;-64
2023/07/12 01:36:31;;;;;;;40.50;7.88;;;;;;;;;;4934409;28;20046;-65
2023/07/12 01:38:58;;;;;;;42.08;8.25;;;;;;;;;;4905392;28;20282;-64
2023/07/12 01:41:24;;;;;;;38.60;8.07;;;;;;;;;;4919517;28;20187;-65
2023/07/12 01:43:51;;;;;;;37.38;8.48;;;;;;;;;;4931767;28;20035;-65
2023/07/12 01:46:18;;;;;;;43.42;8.68;;;;;;;;;;4929524;28;20043;-65
2023/07/12 01:48:44;;;;;;;39.50;9.00;;;;;;;;;;4926526;28;20344;-65
2023/07/12 01:51:11;;;;;;;38.40;8.15;;;;;;;;;;4932441;28;20042;-65
2023/07/12 01:53:37;;;;;;;34.58;8.65;;;;;;;;;;4930204;28;20030;-65
2023/07/12 01:56:04;;;;;;;39.60;8.10;;;;;;;;;;4916059;28;20038;-65
2023/07/12 01:58:30;;;;;;;32.50;7.30;;;;;;;;;;4929947;28;20028;-65
2023/07/12 02:00:57;;;;;;;34.30;7.93;;;;;;;;;;4930128;28;20151;-65
2023/07/12 02:03:24;;;;;;;32.88;7.35;;;;;;;;;;4930712;28;20023;-65
2023/07/12 02:05:50;;;;;;;31.02;7.30;;;;;;;;;;4931261;28;20439;-65
2023/07/12 02:08:17;;;;;;;40.00;8.00;;;;;;;;;;4933964;28;20066;-66
2023/07/12 02:10:43;;;;;;;32.60;6.85;;;;;;;;;;4929955;28;20030;-65
2023/07/12 02:13:10;;;;;;;36.83;7.72;;;;;;;;;;4931677;28;20585;-65
2023/07/12 02:15:36;;;;;;;39.30;7.80;;;;;;;;;;4934150;28;20054;-65
2023/07/12 02:18:02;;;;;;;44.35;8.43;;;;;;;;;;4927742;28;20488;-66
2023/07/12 02:20:29;;;;;;;36.95;8.43;;;;;;;;;;4929823;28;20038;-65
2023/07/12 02:22:55;;;;;;;44.65;8.27;;;;;;;;;;4927509;28;20032;-65
2023/07/12 02:25:21;;;;;;;42.40;8.38;;;;;;;;;;4909710;28;20121;-65
2023/07/12 02:27:48;;;;;;;40.63;7.70;;;;;;;;;;4922788;28;20174;-65
2023/07/12 02:30:17;;;;;;;33.65;7.25;;;;;;;;;;4930573;28;20032;-65
2023/07/12 02:32:43;;;;;;;28.95;7.63;;;;;;;;;;4928357;28;20041;-66
2023/07/12 02:35:10;;;;;;;32.08;6.90;;;;;;;;;;4929634;28;20027;-66
2023/07/12 02:37:36;;;;;;;34.95;7.18;;;;;;;;;;4913454;28;20447;-65
2023/07/12 02:40:04;;;;;;;32.85;7.80;;;;;;;;;;4927991;28;20679;-65
2023/07/12 02:42:30;;;;;;;32.72;7.30;;;;;;;;;;4931036;28;20027;-65
2023/07/12 02:44:57;;;;;;;37.25;8.38;;;;;;;;;;4930658;28;20042;-65
2023/07/12 02:47:23;;;;;;;42.72;8.07;;;;;;;;;;4931361;28;20043;-65
2023/07/12 02:49:49;;;;;;;43.63;9.23;;;;;;;;;;4931054;28;20424;-65
2023/07/12 02:52:15;;;;;;;43.00;8.20;;;;;;;;;;4928901;28;20598;-65
2023/07/12 02:54:42;;;;;;;48.40;8.80;;;;;;;;;;4923023;28;20186;-65
2023/07/12 02:57:09;;;;;;;45.70;8.70;;;;;;;;;;4929657;28;20035;-65
2023/07/12 02:59:36;;;;;;;36.70;8.23;;;;;;;;;;4930282;28;20031;-65
2023/07/12 03:02:03;;;;;;;32.47;8.10;;;;;;;;;;4925856;28;20067;-64
2023/07/12 03:04:30;;;;;;;37.60;8.43;;;;;;;;;;4928340;28;20034;-65
2023/07/12 03:06:56;;;;;;;38.53;8.70;;;;;;;;;;4926275;28;20037;-65
2023/07/12 03:09:22;;;;;;;45.10;8.38;;;;;;;;;;4931383;28;20097;-65
2023/07/12 03:11:49;;;;;;;39.63;8.30;;;;;;;;;;4928592;28;20649;-67
2023/07/12 03:14:19;;;;;;;37.33;8.10;;;;;;;;;;4915091;28;20031;-65
2023/07/12 03:16:45;;;;;;;34.70;7.25;;;;;;;;;;4931636;28;20030;-65
2023/07/12 03:19:12;;;;;;;43.38;8.07;;;;;;;;;;4933132;28;20089;-65
2023/07/12 03:21:39;;;;;;;42.17;7.68;;;;;;;;;;4933211;28;20042;-65
2023/07/12 03:24:05;;;;;;;31.63;7.68;;;;;;;;;;4909953;28;20066;-64
2023/07/12 03:26:32;;;;;;;36.50;7.97;;;;;;;;;;4930778;28;20584;-65
2023/07/12 03:28:58;;;;;;;36.13;7.45;;;;;;;;;;4913070;28;20798;-65
2023/07/12 03:31:25;;;;;;;37.17;7.70;;;;;;;;;;4935604;28;20110;-65
2023/07/12 03:33:51;;;;;;;32.63;7.82;;;;;;;;;;4930111;28;20333;-67
2023/07/12 03:36:19;;;;;;;35.90;7.15;;;;;;;;;;4913511;28;20469;-64
2023/07/12 03:38:45;;;;;;;36.58;7.95;;;;;;;;;;4909732;28;20067;-64
2023/07/12 03:41:12;;;;;;;34.03;7.75;;;;;;;;;;4937132;28;20141;-64
2023/07/12 03:43:38;;;;;;;28.13;6.75;;;;;;;;;;4934761;28;20040;-64
2023/07/12 03:46:05;;;;;;;32.55;7.05;;;;;;;;;;4902607;28;20433;-65
2023/07/12 03:48:32;;;;;;;31.10;6.47;;;;;;;;;;4934961;28;20051;-64
2023/07/12 03:50:58;;;;;;;31.02;6.70;;;;;;;;;;4926880;28;20480;-66
2023/07/12 03:53:25;;;;;;;31.65;7.25;;;;;;;;;;4913280;28;20288;-65
2023/07/12 03:55:51;;;;;;;32.05;7.07;;;;;;;;;;4913278;28;20355;-65
2023/07/12 03:58:19;;;;;;;31.70;7.18;;;;;;;;;;4935752;28;20031;-65
2023/07/12 04:00:49;;;;;;;24.42;5.57;;;;;;;;;;4913582;28;20397;-65
2023/07/12 04:03:16;;;;;;;28.17;6.40;;;;;;;;;;4914568;28;20031;-64
2023/07/12 04:05:43;;;;;;;27.08;6.40;;;;;;;;;;4930808;28;20027;-67
2023/07/12 04:08:10;;;;;;;32.72;7.43;;;;;;;;;;4929871;28;20062;-64
2023/07/12 04:10:36;;;;;;;35.72;7.07;;;;;;;;;;4929633;28;20031;-64
2023/07/12 04:13:03;;;;;;;30.33;7.03;;;;;;;;;;4928641;28;20120;-64
2023/07/12 04:15:29;;;;;;;28.23;7.25;;;;;;;;;;4912514;28;20031;-64
2023/07/12 04:17:55;;;;;;;25.70;6.55;;;;;;;;;;4927268;28;20035;-64
2023/07/12 04:20:21;;;;;;;33.05;6.82;;;;;;;;;;4917776;28;20031;-65
2023/07/12 04:22:51;;;;;;;33.05;6.82;;;;;;;;;;4909532;28;20398;-65
2023/07/12 04:25:18;;;;;;;35.47;6.57;;;;;;;;;;4932659;28;20595;-65
2023/07/12 04:27:44;;;;;;;27.15;6.68;;;;;;;;;;4934905;28;20496;-65
2023/07/12 04:30:14;;;;;;;23.98;6.55;;;;;;;;;;4912342;28;20430;-65
2023/07/12 04:32:40;;;;;;;27.10;5.82;;;;;;;;;;4923333;28;20110;-65
2023/07/12 04:35:07;;;;;;;26.77;5.65;;;;;;;;;;4940999;28;20050;-65
2023/07/12 04:37:33;;;;;;;20.27;5.20;;;;;;;;;;4929189;28;20062;-65
2023/07/12 04:39:59;;;;;;;29.67;6.65;;;;;;;;;;4929241;28;20050;-65
2023/07/12 04:42:25;;;;;;;31.95;6.60;;;;;;;;;;4916728;28;20031;-65
2023/07/12 04:44:52;;;;;;;26.40;7.13;;;;;;;;;;4914524;28;20400;-64
2023/07/12 04:47:18;;;;;;;32.72;7.22;;;;;;;;;;4929997;28;20046;-65
2023/07/12 04:49:45;;;;;;;27.10;6.57;;;;;;;;;;4931133;28;21123;-64
2023/07/12 04:52:12;;;;;;;32.30;7.20;;;;;;;;;;4913489;28;20027;-65
2023/07/12 04:54:42;;;;;;;27.88;6.70;;;;;;;;;;4913822;28;20110;-64
2023/07/12 04:57:09;;;;;;;27.50;6.80;;;;;;;;;;4911723;28;20082;-64
2023/07/12 04:59:36;;;;;;;28.88;7.43;;;;;;;;;;4936961;28;20031;-65
2023/07/12 05:02:02;;;;;;;31.98;6.90;;;;;;;;;;4928298;28;20409;-65
2023/07/12 05:04:28;;;;;;;27.40;7.20;;;;;;;;;;4932100;28;20493;-65
2023/07/12 05:06:54;;;;;;;26.60;6.72;;;;;;;;;;4927287;28;20118;-65
2023/07/12 05:09:21;;;;;;;31.25;7.18;;;;;;;;;;4934675;28;20031;-64
2023/07/12 05:11:50;;;;;;;27.55;6.80;;;;;;;;;;4912504;28;20557;-66
2023/07/12 05:14:16;;;;;;;34.65;7.50;;;;;;;;;;4933179;28;20046;-65
2023/07/12 05:16:42;;;;;;;30.80;6.57;;;;;;;;;;4926780;28;20465;-66
2023/07/12 05:19:08;;;;;;;24.05;6.32;;;;;;;;;;4936470;28;20122;-65
2023/07/12 05:21:35;;;;;;;25.67;6.85;;;;;;;;;;4930024;28;20030;-65
2023/07/12 05:24:01;;;;;;;30.20;6.60;;;;;;;;;;4930640;28;20612;-65
2023/07/12 05:26:27;;;;;;;28.60;7.30;;;;;;;;;;4931053;28;20166;-65
2023/07/12 05:28:53;;;;;;;28.88;6.55;;;;;;;;;;4927948;28;20420;-65
2023/07/12 05:31:20;;;;;;;31.50;7.18;;;;;;;;;;4916867;28;20094;-65
2023/07/12 05:33:47;;;;;;;34.58;7.07;;;;;;;;;;4933519;28;20157;-65
2023/07/12 05:36:14;;;;;;;30.52;7.30;;;;;;;;;;4913094;28;20078;-65
2023/07/12 05:38:40;;;;;;;29.67;6.72;;;;;;;;;;4927123;28;20043;-65
2023/07/12 05:41:06;;;;;;;32.38;7.32;;;;;;;;;;4928571;28;20034;-66
2023/07/12 05:43:35;;;;;;;27.48;6.85;;;;;;;;;;4928643;28;20039;-65
2023/07/12 05:46:03;;;;;;;29.13;7.22;;;;;;;;;;4926768;28;20067;-65
2023/07/12 05:48:29;;;;;;;25.63;7.15;;;;;;;;;;4929699;28;20047;-65
2023/07/12 05:50:56;;;;;;;24.77;6.22;;;;;;;;;;4929806;28;20805;-67
2023/07/12 05:53:23;;;;;;;28.00;6.25;;;;;;;;;;4931519;28;20381;-65
2023/07/12 05:55:54;;;;;;;31.55;6.45;;;;;;;;;;4932102;28;20129;-65
2023/07/12 05:58:20;;;;;;;26.60;6.15;;;;;;;;;;4913232;28;20035;-65
2023/07/12 06:00:47;;;;;;;22.23;6.32;;;;;;;;;;4928095;28;20487;-65
2023/07/12 06:03:13;;;;;;;30.58;6.60;;;;;;;;;;4929770;28;20026;-65
2023/07/12 06:05:44;;;;;;;37.63;7.05;;;;;;;;;;4931881;28;20034;-64
2023/07/12 06:08:10;;;;;;;23.95;6.70;;;;;;;;;;4909810;28;20036;-65
2023/07/12 06:10:37;;;;;;;27.77;6.25;;;;;;;;;;4926150;28;20030;-65
2023/07/12 06:13:03;;;;;;;31.88;7.13;;;;;;;;;;4929982;28;20039;-66
2023/07/12 06:15:30;;;;;;;27.55;6.10;;;;;;;;;;4916788;28;20385;-67
2023/07/12 06:17:56;;;;;;;34.28;6.95;;;;;;;;;;4928161;28;20031;-66
2023/07/12 06:20:22;;;;;;;24.20;6.22;;;;;;;;;;4932232;28;20849;-66
2023/07/12 06:22:48;;;;;;;28.00;6.53;;;;;;;;;;4928841;28;20035;-66
2023/07/12 06:25:15;;;;;;;25.60;6.30;;;;;;;;;;4927245;28;20528;-66
2023/07/12 06:27:41;;;;;;;24.30;6.50;;;;;;;;;;4913483;28;20043;-65
2023/07/12 06:30:07;;;;;;;22.83;6.20;;;;;;;;;;4935788;28;20027;-66
2023/07/12 06:32:33;;;;;;;23.90;6.00;;;;;;;;;;4929220;28;20036;-65
2023/07/12 06:34:59;;;;;;;22.77;5.70;;;;;;;;;;4908467;28;20105;-66
2023/07/12 06:37:26;;;;;;;25.33;6.35;;;;;;;;;;4925238;28;20024;-66
2023/07/12 06:39:52;;;;;;;21.90;6.60;;;;;;;;;;4906926;28;20130;-66
2023/07/12 06:42:18;;;;;;;25.08;6.00;;;;;;;;;;4932899;28;20043;-66
2023/07/12 06:44:44;;;;;;;31.77;6.90;;;;;;;;;;4908486;28;20464;-65
2023/07/12 06:47:10;;;;;;;30.13;7.13;;;;;;;;;;4930032;28;20633;-66
2023/07/12 06:49:37;;;;;;;24.80;6.93;;;;;;;;;;4928018;28;20951;-65
2023/07/12 06:52:03;;;;;;;30.95;7.07;;;;;;;;;;4928312;28;20039;-66
2023/07/12 06:54:29;;;;;;;22.25;6.72;;;;;;;;;;4918504;28;20335;-68
2023/07/12 06:56:55;;;;;;;22.55;5.78;;;;;;;;;;4923307;28;20350;-66
2023/07/12 06:59:22;;;;;;;24.65;6.50;;;;;;;;;;4913622;28;20079;-66
2023/07/12 07:01:48;;;;;;;25.58;6.53;;;;;;;;;;4925836;28;20051;-66
2023/07/12 07:04:14;;;;;;;22.63;6.60;;;;;;;;;;4915086;28;20027;-66
2023/07/12 07:06:42;;;;;;;23.17;6.28;;;;;;;;;;4925341;28;20516;-65
2023/07/12 07:09:08;;;;;;;23.40;6.32;;;;;;;;;;4930419;28;20037;-66
2023/07/12 07:11:34;;;;;;;23.20;6.07;;;;;;;;;;4925408;28;20955;-66
2023/07/12 07:14:01;;;;;;;24.30;6.20;;;;;;;;;;4923912;28;20058;-65
2023/07/12 07:16:27;;;;;;;20.33;6.45;;;;;;;;;;4913945;28;20031;-66
2023/07/12 07:18:53;;;;;;;28.23;6.97;;;;;;;;;;4928473;28;20043;-66
2023/07/12 07:21:19;;;;;;;29.80;6.93;;;;;;;;;;4911795;28;20151;-66
2023/07/12 07:23:46;;;;;;;29.83;7.03;;;;;;;;;;4925169;28;20035;-66
2023/07/12 07:26:12;;;;;;;27.92;6.70;;;;;;;;;;4927324;28;20039;-66
2023/07/12 07:28:39;;;;;;;23.48;6.22;;;;;;;;;;4908831;28;20556;-66
2023/07/12 07:31:06;;;;;;;30.55;6.43;;;;;;;;;;4933794;28;20039;-66
2023/07/12 07:33:32;;;;;;;25.35;6.57;;;;;;;;;;4914137;28;20030;-65
2023/07/12 07:35:59;;;;;;;27.13;6.35;;;;;;;;;;4903683;28;20706;-66
2023/07/12 07:38:28;;;;;;;26.70;6.97;;;;;;;;;;4929128;28;20027;-66
2023/07/12 07:40:55;;;;;;;23.10;6.70;;;;;;;;;;4923239;28;20023;-66
2023/07/12 07:43:21;;;;;;;30.45;6.53;;;;;;;;;;4927214;28;20110;-65
2023/07/12 07:45:48;;;;;;;24.38;6.50;;;;;;;;;;4929550;28;20367;-66
2023/07/12 07:48:15;;;;;;;24.65;6.43;;;;;;;;;;4913987;28;20272;-66
2023/07/12 07:50:42;;;;;;;30.75;7.05;;;;;;;;;;4925934;28;20034;-65
2023/07/12 07:53:09;;;;;;;24.50;7.03;;;;;;;;;;4926927;28;20281;-66
2023/07/12 07:55:40;;;;;;;24.48;6.63;;;;;;;;;;4927983;28;20030;-66
2023/07/12 07:58:09;;;;;;;23.55;6.93;;;;;;;;;;4913070;29;20031;-66
2023/07/12 08:00:36;;;;;;;31.13;6.68;;;;;;;;;;4927270;28;20031;-65
2023/07/12 08:03:03;;;;;;;26.08;5.90;;;;;;;;;;4922998;28;20389;-66
2023/07/12 08:05:29;;;;;;;26.02;6.38;;;;;;;;;;4912929;28;20065;-66
2023/07/12 08:07:56;;;;;;;25.67;6.10;;;;;;;;;;4928116;28;20469;-66
2023/07/12 08:10:22;;;;;;;24.92;6.22;;;;;;;;;;4926702;28;20047;-66
2023/07/12 08:12:49;;;;;;;23.63;6.55;;;;;;;;;;4924775;28;20584;-66
2023/07/12 08:15:15;;;;;;;27.30;6.97;;;;;;;;;;4928184;28;20106;-66
2023/07/12 08:17:42;;;;;;;27.38;6.00;;;;;;;;;;4923956;28;20031;-66
2023/07/12 08:20:09;;;;;;;20.40;5.63;;;;;;;;;;4930364;28;20174;-65
2023/07/12 08:22:35;;;;;;;26.27;6.57;;;;;;;;;;4929682;28;20035;-65
2023/07/12 08:25:02;;;;;;;26.85;7.07;;;;;;;;;;4929971;28;20406;-65
2023/07/12 08:27:30;;;;;;;29.20;7.38;;;;;;;;;;4933591;28;20035;-65
2023/07/12 08:29:58;;;;;;;31.27;7.07;;;;;;;;;;4914599;28;20062;-64
2023/07/12 08:32:27;;;;;;;26.88;6.38;;;;;;;;;;4928090;28;20082;-65
2023/07/12 08:34:54;;;;;;;23.20;7.13;;;;;;;;;;4907058;28;20067;-65
2023/07/12 08:37:20;;;;;;;27.73;6.65;;;;;;;;;;4916605;28;20031;-65
2023/07/12 08:39:46;;;;;;;30.25;7.95;;;;;;;;;;4933203;28;20051;-65
2023/07/12 08:42:14;;;;;;;26.00;6.63;;;;;;;;;;4931289;28;20035;-66
2023/07/12 08:44:40;;;;;;;22.13;6.30;;;;;;;;;;4912281;28;20591;-65
2023/07/12 08:47:14;;;;;;;31.55;6.85;;;;;;;;;;4915396;28;20565;-66
2023/07/12 08:49:40;;;;;;;23.63;6.97;;;;;;;;;;4929013;28;20067;-65
2023/07/12 08:52:11;;;;;;;28.70;7.18;;;;;;;;;;4912780;28;20029;-65
2023/07/12 08:54:38;;;;;;;26.52;5.80;;;;;;;;;;4931732;28;20326;-65
2023/07/12 08:57:04;;;;;;;22.65;6.43;;;;;;;;;;4915866;28;20361;-65
2023/07/12 08:59:30;;;;;;;27.17;6.80;;;;;;;;;;4915050;28;20031;-66
2023/07/12 09:01:59;;;;;;;31.70;6.85;;;;;;;;;;4913225;28;20043;-66
2023/07/12 09:04:25;;;;;;;21.95;6.25;;;;;;;;;;4915162;28;20079;-65
2023/07/12 09:06:54;;;;;;;22.70;6.72;;;;;;;;;;4927434;28;20126;-66
2023/07/12 09:09:20;;;;;;;25.38;5.93;;;;;;;;;;4916666;28;20091;-66
2023/07/12 09:11:46;;;;;;;22.90;6.50;;;;;;;;;;4928375;28;20070;-66
2023/07/12 09:14:20;;;;;;;27.77;7.90;;;;;;;;;;4910154;28;20388;-65
2023/07/12 09:16:50;;;;;;;26.08;7.10;;;;;;;;;;4926179;28;20036;-67
2023/07/12 09:19:19;;;;;;;28.35;6.93;;;;;;;;;;4930709;28;20035;-67
2023/07/12 09:21:50;;;;;;;26.75;6.72;;;;;;;;;;4911492;28;20042;-67
2023/07/12 09:24:26;;;;;;;24.23;7.22;;;;;;;;;;4931801;28;20038;-66
2023/07/12 09:27:02;;;;;;;30.88;6.97;;;;;;;;;;4929500;28;20037;-64
2023/07/12 09:29:28;;;;;;;25.52;6.47;;;;;;;;;;4930392;28;20087;-66
2023/07/12 09:31:59;;;;;;;28.13;6.93;;;;;;;;;;4926352;28;20553;-66
2023/07/12 09:34:33;;;;;;;24.75;6.72;;;;;;;;;;4911820;28;20438;-66
2023/07/12 09:37:00;;;;;;;25.55;6.78;;;;;;;;;;4926190;28;20483;-66
2023/07/12 09:39:26;;;;;;;32.42;7.03;;;;;;;;;;4932441;28;20054;-66
2023/07/12 09:41:58;;;;;;;24.33;6.60;;;;;;;;;;4927545;28;21261;-66
2023/07/12 09:44:24;;;;;;;27.90;6.88;;;;;;;;;;4914179;29;20031;-66
2023/07/12 09:47:10;;;;;;;37.08;7.43;;;;;;;;;;4929706;28;20699;-66
2023/07/12 09:49:47;;;;;;;27.52;7.18;;;;;;;;;;4929359;28;20083;-66
2023/07/12 09:52:17;;;;;;;21.85;6.15;;;;;;;;;;4930138;28;20043;-66
2023/07/12 09:54:57;;;;;;;36.50;7.22;;;;;;;;;;4925931;28;20059;-66
2023/07/12 09:57:29;;;;;;;26.98;7.32;;;;;;;;;;4928329;28;20027;-66
2023/07/12 10:00:02;;;;;;;30.85;7.20;;;;;;;;;;4927450;28;20105;-66
2023/07/12 10:02:28;;;;;;;29.73;6.55;;;;;;;;;;4913812;28;20034;-66
2023/07/12 10:04:58;;;;;;;27.25;6.55;;;;;;;;;;4907945;28;20078;-66
2023/07/12 10:07:46;;;;;;;33.17;6.13;;;;;;;;;;4931445;28;20045;-66
2023/07/12 10:10:22;;;;;;;24.60;6.88;;;;;;;;;;4915563;28;20182;-66
2023/07/12 10:12:59;;;;;;;24.90;6.63;;;;;;;;;;4926745;28;20063;-66
2023/07/12 10:15:27;;;;;;;39.97;7.15;;;;;;;;;;4932383;28;20054;-66
2023/07/12 10:17:53;;;;;;;23.45;5.97;;;;;;;;;;4929462;28;21037;-66
2023/07/12 10:20:22;;;;;;;26.38;6.90;;;;;;;;;;4931858;28;20517;-66
2023/07/12 10:22:48;;;;;;;22.15;6.05;;;;;;;;;;4927705;28;20508;-66
2023/07/12 10:25:14;;;;;;;27.60;6.80;;;;;;;;;;4933781;28;20058;-66
2023/07/12 10:27:46;;;;;;;24.23;6.50;;;;;;;;;;4907311;28;20031;-66
2023/07/12 10:30:17;;;;;;;25.02;6.43;;;;;;;;;;4929296;28;20027;-66
2023/07/12 10:32:47;;;;;;;24.27;6.97;;;;;;;;;;4911748;28;20650;-66
2023/07/12 10:35:33;;;;;;;25.80;6.85;;;;;;;;;;4931873;28;20035;-67
2023/07/12 10:38:03;;;;;;;26.88;6.60;;;;;;;;;;4930563;28;20714;-66
2023/07/12 10:40:36;;;;;;;26.92;6.95;;;;;;;;;;4930232;28;20046;-66
2023/07/12 10:43:09;;;;;;;27.15;6.57;;;;;;;;;;4914475;28;20031;-66
2023/07/12 10:45:37;;;;;;;21.10;6.15;;;;;;;;;;4930202;28;20411;-66
2023/07/12 10:48:04;;;;;;;25.77;6.18;;;;;;;;;;4927014;28;20438;-66
2023/07/12 10:50:36;;;;;;;32.25;6.35;;;;;;;;;;4930746;28;20114;-67
2023/07/12 10:53:04;;;;;;;24.23;6.70;;;;;;;;;;4911287;28;20035;-66
2023/07/12 10:55:36;;;;;;;26.73;7.28;;;;;;;;;;4928428;28;20038;-66
2023/07/12 10:58:21;;;;;;;24.40;7.47;;;;;;;;;;4930256;28;20063;-66
2023/07/12 11:00:52;;;;;;;25.63;7.50;;;;;;;;;;4927005;28;20568;-66
2023/07/12 11:03:22;;;;;;;31.73;7.72;;;;;;;;;;4927888;28;20031;-66
2023/07/12 11:05:55;;;;;;;29.92;8.05;;;;;;;;;;4928762;28;20047;-66
2023/07/12 11:08:35;;;;;;;24.40;6.38;;;;;;;;;;4929711;28;20036;-66
2023/07/12 11:11:08;;;;;;;23.05;6.63;;;;;;;;;;4927785;28;20038;-66
2023/07/12 11:13:36;;;;;;;29.05;6.70;;;;;;;;;;4929320;28;20043;-66
2023/07/12 11:16:07;;;;;;;25.08;6.32;;;;;;;;;;4928659;28;20031;-68
2023/07/12 11:18:35;;;;;;;25.00;5.95;;;;;;;;;;4933035;28;20027;-67
2023/07/12 11:21:06;;;;;;;21.08;5.97;;;;;;;;;;4924677;28;20364;-66
2023/07/12 11:23:39;;;;;;;22.77;6.65;;;;;;;;;;4917294;28;20324;-66
2023/07/12 11:26:19;;;;;;;23.25;5.53;;;;;;;;;;4931789;28;20031;-66
2023/07/12 11:28:45;;;;;;;24.05;6.50;;;;;;;;;;4929134;28;20118;-66
2023/07/12 11:31:17;;;;;;;21.83;5.95;;;;;;;;;;4930465;28;20094;-66
2023/07/12 11:34:05;;;;;;;22.92;6.05;;;;;;;;;;4929457;28;20428;-66
2023/07/12 11:36:33;;;;;;;26.05;7.25;;;;;;;;;;4932422;28;20082;-66
2023/07/12 11:39:00;;;;;;;26.50;5.95;;;;;;;;;;4929091;28;20031;-66
2023/07/12 11:41:28;;;;;;;22.73;6.22;;;;;;;;;;4934507;28;20042;-66
2023/07/12 11:44:00;;;;;;;22.95;6.45;;;;;;;;;;4909886;28;20034;-66
2023/07/12 11:46:29;;;;;;;23.27;6.50;;;;;;;;;;4932296;28;20309;-66
2023/07/12 11:48:57;;;;;;;24.42;6.45;;;;;;;;;;4909760;28;20975;-66
2023/07/12 11:51:34;;;;;;;21.42;5.90;;;;;;;;;;4931777;28;20031;-66
2023/07/12 11:54:01;;;;;;;26.20;6.10;;;;;;;;;;4928656;28;20117;-66
2023/07/12 11:56:28;;;;;;;21.17;5.72;;;;;;;;;;4935180;28;20607;-68
2023/07/12 11:58:54;;;;;;;26.15;6.50;;;;;;;;;;4910670;28;20150;-66
2023/07/12 12:01:21;;;;;;;22.83;6.10;;;;;;;;;;4937106;28;20764;-66
2023/07/12 12:03:48;;;;;;;19.52;6.05;;;;;;;;;;4915086;28;20066;-66
2023/07/12 12:06:14;;;;;;;22.65;6.38;;;;;;;;;;4940395;28;20034;-67
2023/07/12 12:08:45;;;;;;;25.15;6.13;;;;;;;;;;4935167;28;20070;-67
2023/07/12 12:11:11;;;;;;;24.25;6.60;;;;;;;;;;4929755;28;20026;-67
2023/07/12 12:13:41;;;;;;;25.20;6.68;;;;;;;;;;4932579;28;20042;-67
2023/07/12 12:16:18;;;;;;;20.60;6.47;;;;;;;;;;4935500;28;20053;-67
2023/07/12 12:19:10;;;;;;;24.27;6.90;;;;;;;;;;4910889;28;20963;-66
2023/07/12 12:21:46;;;;;;;20.30;6.53;;;;;;;;;;4928753;28;21022;-68
2023/07/12 12:24:16;;;;;;;21.10;5.88;;;;;;;;;;4933436;28;20038;-66
2023/07/12 12:26:43;;;;;;;27.17;7.05;;;;;;;;;;4927868;28;20027;-67
2023/07/12 12:29:19;;;;;;;25.13;6.68;;;;;;;;;;4915093;28;20035;-67
2023/07/12 12:32:03;;;;;;;29.05;6.57;;;;;;;;;;4912681;28;20071;-67
2023/07/12 12:34:37;;;;;;;30.25;6.75;;;;;;;;;;4918438;28;20389;-67
2023/07/12 12:37:17;;;;;;;26.08;7.47;;;;;;;;;;4926889;28;20038;-67
2023/07/12 12:39:56;;;;;;;24.20;6.70;;;;;;;;;;4930361;28;20027;-67
2023/07/12 12:42:23;;;;;;;26.15;6.70;;;;;;;;;;4934326;28;20082;-67
2023/07/12 12:44:51;;;;;;;26.48;6.55;;;;;;;;;;4907688;28;20042;-67
2023/07/12 12:47:18;;;;;;;19.58;6.32;;;;;;;;;;4930845;28;20415;-67
2023/07/12 12:49:45;;;;;;;21.75;6.13;;;;;;;;;;4927299;28;20118;-67
2023/07/12 12:52:29;;;;;;;24.95;6.38;;;;;;;;;;4910601;28;20026;-67
2023/07/12 12:55:00;;;;;;;21.63;6.70;;;;;;;;;;4909512;28;20040;-67
2023/07/12 12:57:30;;;;;;;23.75;6.28;;;;;;;;;;4925279;28;20355;-67
2023/07/12 12:59:56;;;;;;;20.63;6.32;;;;;;;;;;4927015;28;20662;-67
2023/07/12 13:02:22;;;;;;;23.25;6.32;;;;;;;;;;4915739;28;20296;-67
2023/07/12 13:04:49;;;;;;;22.27;6.57;;;;;;;;;;4923039;28;20082;-67
2023/07/12 13:07:20;;;;;;;24.45;6.70;;;;;;;;;;4930244;28;20023;-67
2023/07/12 13:09:47;;;;;;;30.63;7.63;;;;;;;;;;4927103;28;20760;-68
2023/07/12 13:12:17;;;;;;;33.67;7.78;;;;;;;;;;4929971;28;20024;-67
2023/07/12 13:14:43;;;;;;;32.20;7.13;;;;;;;;;;4908562;28;20038;-65
2023/07/12 13:17:16;;;;;;;30.45;7.28;;;;;;;;;;4927762;28;20082;-66
2023/07/12 13:19:43;;;;;;;30.23;7.80;;;;;;;;;;4925604;28;20098;-65
2023/07/12 13:22:12;;;;;;;34.90;7.28;;;;;;;;;;4930720;28;20946;-66
2023/07/12 13:24:38;;;;;;;29.30;7.20;;;;;;;;;;4932797;28;20030;-66
2023/07/12 13:27:08;;;;;;;33.85;7.25;;;;;;;;;;4929128;28;20359;-66
2023/07/12 13:29:34;;;;;;;33.30;8.25;;;;;;;;;;4931649;28;20039;-66
2023/07/12 13:32:01;;;;;;;33.20;8.02;;;;;;;;;;4904415;28;20027;-66
2023/07/12 13:34:27;;;;;;;30.90;7.43;;;;;;;;;;4929277;28;20507;-69
2023/07/12 13:36:53;;;;;;;28.83;6.85;;;;;;;;;;4923517;28;20608;-65
2023/07/12 13:39:21;;;;;;;28.73;7.72;;;;;;;;;;4925588;28;20050;-66
2023/07/12 13:41:48;;;;;;;32.50;7.82;;;;;;;;;;4929118;28;20924;-65
2023/07/12 13:44:15;;;;;;;29.95;7.30;;;;;;;;;;4929405;28;20031;-67
2023/07/12 13:46:42;;;;;;;31.73;7.45;;;;;;;;;;4925541;28;20055;-67
2023/07/12 13:49:12;;;;;;;32.15;7.20;;;;;;;;;;4926747;28;20058;-66
2023/07/12 13:51:40;;;;;;;27.85;7.05;;;;;;;;;;4925151;28;20046;-67
2023/07/12 13:54:06;;;;;;;28.70;7.22;;;;;;;;;;4894906;29;20040;-67
2023/07/12 13:56:32;;;;;;;29.55;7.60;;;;;;;;;;4915723;28;20059;-67
2023/07/12 13:58:58;;;;;;;28.67;6.75;;;;;;;;;;4925306;28;20446;-67
2023/07/12 14:01:26;;;;;;;31.15;7.50;;;;;;;;;;4931637;28;20027;-66
2023/07/12 14:03:52;;;;;;;25.48;6.85;;;;;;;;;;4906613;28;20470;-67
2023/07/12 14:06:19;;;;;;;29.88;6.82;;;;;;;;;;4925704;28;20036;-67
2023/07/12 14:08:47;;;;;;;33.97;7.22;;;;;;;;;;4923107;28;20278;-66
2023/07/12 14:11:26;;;;;;;33.45;7.03;;;;;;;;;;4908456;28;20058;-67
2023/07/12 14:13:52;;;;;;;29.42;6.90;;;;;;;;;;4923152;28;20022;-67
2023/07/12 14:16:20;;;;;;;36.22;6.70;;;;;;;;;;4911107;28;20361;-67
2023/07/12 14:18:46;;;;;;;31.88;7.25;;;;;;;;;;4921959;28;20082;-67
2023/07/12 14:21:16;;;;;;;26.55;6.43;;;;;;;;;;4922576;28;20035;-67
2023/07/12 14:23:45;;;;;;;27.88;6.88;;;;;;;;;;4921456;28;20027;-66
2023/07/12 14:26:19;;;;;;;30.35;7.35;;;;;;;;;;4927873;28;20027;-67
2023/07/12 14:28:47;;;;;;;29.03;7.17;;;;;;;;;;4923680;28;20024;-66
2023/07/12 14:31:14;;;;;;;26.58;6.90;;;;;;;;;;4927843;28;20351;-67
2023/07/12 14:33:40;;;;;;;31.25;7.65;;;;;;;;;;4908623;28;20739;-66
2023/07/12 14:36:06;;;;;;;27.52;7.32;;;;;;;;;;4923391;28;20402;-67